Flight Track Log - Related Links

Times and Time Zones

All times are in EDT time to prevent confusion due to time zone crossing. See the AWI3704 flight status page for this flight to view local times or setup timezone preferences in your user account.

Time Position Orientation Groundspeed Altitude Reporting Facility
EDT Latitude Longitude Course Direction KTS MPH feet Rate Location/Type
Sun 12:01:19 PM 42.8000 -73.8522 314° West 196 226 3,400  Level Boston Center
Sun 12:02:00 PM 42.7334 -74.1641 270° West  Level FlightAware Approximate
Sun 12:02:08 PM 42.7972 -73.9114 266° West 213 245 5,000  Level Boston Center
Sun 12:03:00 PM 42.7333 -74.2855 270° West  Level FlightAware Approximate
Sun 12:03:28 PM 42.7853 -74.0328 262° West 268 308 7,600  Level Boston Center
Sun 12:04:00 PM 42.6790 -74.3758 220° Southwest  Level FlightAware Approximate
Sun 12:04:27 PM 42.7692 -74.1286 257° West 268 308 10,300  Level Boston Center
Sun 12:05:00 PM 42.6103 -74.4530 220° Southwest  Level FlightAware Approximate
Sun 12:05:28 PM 42.7550 -74.2442 261° West 279 321 12,000  Level Boston Center
Sun 12:06:28 PM 42.7181 -74.3336 241° Southwest 289 333 13,500 1,600 Climbing Boston Center
Sun 12:07:28 PM 42.6436 -74.4244 222° Southwest 312 359 15,200 1,300 Climbing Boston Center
Sun 12:08:28 PM 42.5797 -74.4983 220° Southwest 334 384 16,100 450 Climbing Boston Center
Sun 12:09:28 PM 42.4947 -74.5942 220° Southwest 357 411 16,100  Level Boston Center
Sun 12:10:28 PM 42.4200 -74.6817 221° Southwest 384 442 16,100  Level Boston Center
Sun 12:11:28 PM 42.3281 -74.7878 220° Southwest 396 456 16,100 -38 Level Boston Center
Sun 12:13:07 PM 42.1850 -74.9464 219° Southwest 405 466 16,000 -38 Descending New York Center
Sun 12:14:08 PM 42.0883 -75.0353 214° Southwest 415 478 16,000  Level New York Center
Sun 12:15:06 PM 41.9897 -75.1156 211° Southwest 422 486 16,000  Level New York Center
Sun 12:16:06 PM 41.8931 -75.1956 212° Southwest 417 480 16,000 -248 Level New York Center
Sun 12:17:07 PM 41.8050 -75.2647 210° Southwest 422 486 15,500 -744 Descending New York Center
Sun 12:18:07 PM 41.7061 -75.3442 211° Southwest 422 486 14,500 -1,041 Descending New York Center
Sun 12:19:08 PM 41.6008 -75.4314 212° Southwest 417 480 13,400 -1,041 Descending New York Center
Sun 12:20:08 PM 41.5061 -75.5050 210° Southwest 417 480 12,400 -700 Descending New York Center
Sun 12:21:08 PM 41.4114 -75.5814 211° Southwest 412 474 12,000 -203 Descending New York Center
Sun 12:22:06 PM 41.3278 -75.6444 210° Southwest 401 461 12,000  Level New York Center
Sun 12:23:06 PM 41.2300 -75.6869 198° South 380 437 12,000  Level New York Center
Sun 12:24:07 PM 41.1250 -75.6600 169° South 388 447 12,000  Level New York Center
Sun 12:25:07 PM 41.0100 -75.6217 166° South 394 453 12,000  Level New York Center
Sun 12:26:08 PM 40.9050 -75.5867 166° South 394 453 12,000  Level New York Center
Sun 12:27:08 PM 40.8003 -75.5519 166° South 394 453 12,000  Level New York Center
Sun 12:28:06 PM 40.7058 -75.5178 165° South 399 459 12,000 -51 Level New York Center
Sun 12:29:06 PM 40.5989 -75.4831 166° South 392 451 11,900 -850 Descending New York Center
Sun 12:30:06 PM 40.4961 -75.4489 166° South 363 418 10,300 -1,240 Descending New York Center
Sun 12:31:07 PM 40.4181 -75.4136 161° South 316 364 9,400 -1,328 Descending New York Center
Sun 12:32:08 PM 40.3531 -75.3764 156° South 283 326 7,600 -1,714 Descending New York Center
Sun 12:33:06 PM 40.2836 -75.3339 155° Southeast 277 319 6,000 -807 Descending New York Center
Sun 12:34:07 PM 40.2108 -75.2772 149° Southeast 277 319 6,000  Level New York Center
Sun 12:35:08 PM 40.1464 -75.2217 147° Southeast 284 327 6,000  Level New York Center
Sun 12:36:06 PM 40.0958 -75.1775 146° Southeast 264 304 6,000  Level New York Center
Sun 12:37:07 PM 40.0414 -75.1308 147° Southeast 224 258 6,000  Level New York Center
Sun 12:38:07 PM 40.0011 -75.0903 142° Southeast 211 243 6,000  Level New York Center
Sun 12:39:17 PM 40.0167 -75.0000 77° East 202 232 6,000 -441 Level Philadelphia TRACON
Sun 12:40:23 PM 40.0333 -74.9167 75° East 194 223 5,000 -952 Descending Philadelphia TRACON
Sun 12:41:23 PM 40.0000 -74.8833 143° Southeast 179 206 4,000 -1,000 Descending Philadelphia TRACON
Sun 12:42:23 PM 39.9500 -74.8667 166° South 179 206 3,000 -571 Descending Philadelphia TRACON
Sun 12:43:08 PM 39.9367 -74.9103 248° West 158 182 3,000 -300 Level New York Center
Sun 12:44:23 PM 39.9167 -74.9833 250° West 168 193 2,400 -480 Descending Philadelphia TRACON

Login

Don't have an account? Register now (free) for customized features, flight alerts, and more!